Date,TemperatureHighF,TemperatureAvgF,TemperatureLowF,DewpointHighF,DewpointAvgF,DewpointLowF,HumidityHigh,HumidityAvg,HumidityLow,PressureMaxIn,PressureMinIn,WindSpeedMaxMPH,WindSpeedAvgMPH,GustSpeedMaxMPH,PrecipitationSumIn
2013-1-1,26,23,20,18,14,11,79,69,59,30.20,30.08,8,1,14,0.00
2013-1-2,26,24,18,21,18,11,81,76,71,30.19,30.12,7,1,14,0.00
2013-1-3,29,25,19,25,20,12,86,79,72,30.20,30.07,13,2,14,0.01
2013-1-4,34,30,26,26,24,20,82,77,71,30.20,30.06,19,6,26,0.00
2013-1-5,36,30,22,31,25,19,90,81,65,30.25,29.98,8,1,15,0.03
2013-1-6,34,33,31,32,29,23,91,85,70,30.30,29.87,7,2,13,0.07
2013-1-7,38,32,27,25,22,18,82,69,46,30.35,30.12,10,2,16,0.00
2013-1-8,38,32,27,28,25,22,83,75,67,30.22,30.09,5,0,11,0.00
2013-1-9,44,39,32,34,30,25,80,70,52,30.44,30.00,21,5,27,0.00
2013-1-10,45,34,25,32,27,22,89,76,53,30.55,30.08,10,2,15,0.13
2013-1-11,52,45,36,51,43,32,94,91,87,30.06,29.72,15,2,20,0.51
2013-1-12,56,48,38,48,41,31,90,77,55,29.95,29.75,10,2,23,0.01
2013-1-13,37,32,24,33,28,18,91,87,77,30.12,29.84,18,2,19,0.18
2013-1-14,26,22,18,18,15,14,84,76,67,30.46,30.13,11,2,17,0.00
2013-1-15,30,23,18,19,17,14,92,76,61,30.45,30.17,5,0,8,0.00
2013-1-16,35,28,18,29,21,14,86,77,59,30.16,29.81,14,3,23,0.00
2013-1-17,34,27,21,28,17,8,78,65,57,30.37,30.00,13,2,19,0.00
2013-1-18,40,28,18,28,18,8,78,64,56,30.44,29.91,10,2,25,0.00
2013-1-19,45,42,39,36,32,22,76,68,47,29.90,29.60,17,6,32,0.00
2013-1-20,39,17,14,21,10,7,79,72,49,30.24,29.62,17,4,33,0.00
2013-1-21,16,10,2,13,6,-3,92,81,76,30.22,30.07,15,2,19,0.06
2013-1-22,10,4,0,4,-1,-5,81,78,69,30.36,30.21,7,1,11,0.00
2013-1-23,18,12,4,14,7,-1,86,82,80,30.36,30.11,6,1,11,0.05
2013-1-24,18,11,2,7,4,-2,84,72,57,30.67,30.25,3,0,5,0.00
2013-1-25,22,18,13,18,12,3,87,77,66,30.52,30.00,10,0,12,0.03
2013-1-26,30,24,20,21,18,16,88,78,59,30.46,30.10,6,1,11,0.00
2013-1-27,31,26,20,28,20,15,90,79,65,30.46,30.06,8,1,15,0.14
2013-1-28,44,37,31,43,34,28,94,91,86,30.05,29.84,11,1,17,0.06
2013-1-29,56,47,34,54,46,31,95,93,89,29.97,29.37,8,1,14,1.21
2013-1-30,52,40,24,50,39,21,95,93,86,29.39,29.11,16,3,23,0.42
2013-1-31,24,18,15,21,15,12,89,87,81,29.96,29.40,14,4,22,0.08
2013-2-1,16,14,10,12,10,7,88,85,75,30.28,29.96,10,2,16,0.02
2013-2-2,18,14,8,15,10,3,89,82,70,30.20,30.04,2,0,5,0.23
2013-2-3,19,15,8,16,11,4,87,84,81,30.07,29.92,10,1,18,0.01
2013-2-4,24,18,12,18,13,8,87,82,71,30.06,29.93,3,0,8,0.01
2013-2-5,28,20,7,26,16,3,89,85,78,30.05,29.81,7,1,17,0.01
2013-2-6,34,25,12,21,18,9,88,75,61,30.29,30.06,4,1,12,0.00
2013-2-7,32,30,27,30,25,20,91,83,73,30.25,29.89,7,1,10,0.47
2013-2-8,34,28,18,28,23,13,91,81,61,30.40,29.89,7,1,11,0.10
2013-2-9,34,21,7,21,14,3,87,76,59,30.47,30.24,6,1,10,0.00
2013-2-10,41,30,19,39,26,15,92,84,74,30.23,29.58,8,2,18,0.10
2013-2-11,44,35,30,42,31,23,92,83,71,29.91,29.52,20,7,33,0.12
2013-2-12,30,28,26,24,23,20,82,79,76,30.08,29.92,12,4,16,0.00
2013-2-13,39,31,23,30,25,19,87,79,64,29.95,29.74,8,1,12,0.00
2013-2-14,40,33,28,33,30,24,91,86,74,29.92,29.64,17,3,21,0.09
2013-2-15,28,24,21,23,17,14,92,72,58,30.18,29.93,10,2,14,0.00
2013-2-16,23,19,13,17,13,9,87,78,58,30.16,30.07,7,1,13,0.00
2013-2-17,24,16,5,11,7,1,85,71,53,30.27,30.15,5,1,9,0.00
2013-2-18,45,34,18,40,24,10,89,69,57,30.17,29.44,10,2,19,0.10
2013-2-19,43,25,16,40,22,13,90,87,84,30.01,29.38,19,6,26,0.11
2013-2-20,23,19,15,16,13,10,84,76,66,30.34,30.01,14,3,19,0.00
2013-2-21,27,23,20,18,16,13,79,74,66,30.41,30.20,9,2,15,0.00
2013-2-22,32,26,20,30,23,14,92,88,77,30.21,29.87,13,3,21,0.25
2013-2-23,30,28,25,29,25,22,92,88,79,29.94,29.86,10,2,17,0.03
2013-2-24,37,30,23,28,24,19,90,79,62,30.18,29.92,11,2,14,0.00
2013-2-25,40,29,16,27,21,13,90,74,53,30.25,30.11,4,0,7,0.00
2013-2-26,34,31,28,31,25,21,92,79,68,30.14,29.55,23,3,27,0.51
2013-2-27,36,34,32,34,32,31,93,91,88,29.63,29.50,2,0,5,0.08
2013-2-28,38,34,30,31,29,24,92,83,74,30.03,29.63,5,1,10,0.00
2013-3-1,30,27,22,24,19,15,78,71,63,30.19,30.03,5,1,11,0.00
2013-3-2,29,23,16,17,14,11,80,70,58,30.19,30.12,6,1,9,0.00
2013-3-3,33,24,13,18,14,9,84,68,50,30.14,30.05,9,2,13,0.00
2013-3-4,35,24,11,19,14,7,87,69,50,30.21,30.11,5,0,8,0.00
2013-3-5,33,26,21,23,19,13,83,72,63,30.15,29.88,11,2,18,0.00
2013-3-6,40,34,27,29,27,23,85,75,64,30.26,29.98,5,1,11,0.00
2013-3-7,38,33,25,28,23,19,85,69,52,30.44,30.25,9,1,10,0.00
2013-3-8,42,30,18,24,20,15,87,68,47,30.54,30.41,7,0,9,0.00
2013-3-9,43,36,27,33,26,20,77,69,56,30.41,29.97,9,1,13,0.00
2013-3-10,49,46,40,44,40,33,90,80,65,29.96,29.70,6,1,8,0.20
2013-3-11,52,45,34,47,41,32,92,86,69,29.70,29.48,13,3,22,0.07
2013-3-12,35,32,29,32,27,24,90,82,70,29.91,29.66,15,4,20,0.01
2013-3-13,33,27,23,25,19,14,86,71,50,30.27,29.91,12,3,19,0.00
2013-3-14,40,30,20,24,18,15,85,64,46,30.31,30.11,7,2,15,0.00
2013-3-15,39,36,32,33,31,25,90,83,73,30.11,29.86,10,3,15,0.01
2013-3-16,35,30,25,30,23,19,90,78,59,30.10,29.78,7,2,15,0.12
2013-3-17,31,27,24,20,16,11,74,63,49,30.29,30.10,9,2,15,0.00
2013-3-18,34,28,21,31,23,15,91,83,69,30.16,29.60,17,3,19,0.09
2013-3-19,30,24,20,27,18,15,88,80,60,29.99,29.66,15,5,26,0.02
2013-3-20,27,22,14,16,14,10,84,72,58,30.02,29.96,11,3,19,0.00
2013-3-21,30,23,14,24,18,10,88,81,71,30.02,29.94,10,2,17,0.00
2013-3-22,36,30,26,23,20,18,78,67,57,30.07,30.01,9,3,18,0.00
2013-3-23,36,30,24,23,22,19,83,72,60,30.16,30.07,3,0,10,0.00
2013-3-24,38,30,24,26,22,19,86,73,57,30.08,29.73,15,2,19,0.00
2013-3-25,39,34,30,27,25,22,77,69,56,30.01,29.68,10,2,14,0.00
2013-3-26,42,35,30,33,29,25,89,79,60,30.20,30.00,8,1,14,0.07
2013-3-27,44,37,30,30,27,22,89,69,49,30.28,30.20,12,3,20,0.00
2013-3-28,50,38,27,29,25,22,88,61,39,30.32,30.27,8,1,17,0.00
2013-3-29,51,38,24,30,24,20,87,62,36,30.32,30.24,8,1,15,0.00
2013-3-30,57,41,25,34,27,22,89,61,31,30.25,29.88,9,1,14,0.00
2013-3-31,49,43,37,40,36,29,90,75,56,29.88,29.67,8,3,22,0.01
2013-4-1,37,30,27,29,17,12,81,59,48,30.14,29.78,14,3,19,0.01
2013-4-2,38,31,21,20,16,14,81,56,39,30.30,30.13,13,3,22,0.00
2013-4-3,45,32,22,20,17,14,80,56,30,30.48,30.29,10,1,13,0.00
2013-4-4,52,40,25,28,21,17,76,51,31,30.37,29.97,12,2,19,0.00
2013-4-5,50,41,32,27,23,18,70,50,30,30.21,29.97,8,2,13,0.00
2013-4-6,58,47,35,42,26,16,64,46,36,30.20,29.68,11,3,18,0.01
2013-4-7,54,45,36,47,36,29,84,70,57,30.03,29.57,19,4,24,0.06
2013-4-8,52,41,36,49,37,29,93,85,77,30.02,29.66,13,3,29,0.40
2013-4-9,47,42,40,45,40,37,94,93,91,30.06,29.88,7,2,26,0.81
2013-4-10,41,39,37,39,37,32,93,90,82,30.02,29.86,14,3,18,0.33
2013-4-11,38,36,35,34,33,31,91,89,76,30.00,29.65,21,5,26,1.13
2013-4-12,41,37,33,36,34,31,93,88,74,29.78,29.58,13,3,20,0.16
2013-4-13,40,36,34,35,30,25,92,78,58,30.00,29.78,13,4,20,0.05
2013-4-14,50,39,30,41,33,26,91,80,68,30.11,29.85,13,2,19,0.05
2013-4-15,65,55,44,55,47,36,91,77,66,29.95,29.81,12,3,21,0.48
2013-4-16,52,47,41,45,37,31,92,71,47,30.26,29.91,10,2,16,0.26
2013-4-17,52,45,41,43,36,31,92,72,51,30.34,29.96,10,3,25,1.21
2013-4-18,62,54,44,60,52,42,95,91,82,29.99,29.40,12,3,23,2.36
2013-4-19,62,39,32,57,33,27,89,80,66,29.78,29.42,22,7,38,0.41
2013-4-20,39,33,28,27,20,17,82,61,46,30.48,29.78,13,3,20,0.00
2013-4-21,53,39,24,31,24,19,84,58,37,30.61,30.41,9,2,14,0.00
2013-4-22,66,51,35,34,31,28,78,50,29,30.42,30.13,5,1,12,0.00
2013-4-23,65,51,41,51,42,33,90,71,49,30.13,29.84,7,1,15,0.42
2013-4-24,46,39,34,38,30,25,91,73,45,30.11,29.87,13,2,19,0.09
2013-4-25,50,42,35,37,31,27,90,67,45,30.34,30.04,11,3,22,0.19
2013-4-26,65,50,34,40,34,28,82,57,37,30.43,30.27,11,2,19,0.00
2013-4-27,72,59,44,45,40,36,76,51,29,30.31,30.06,7,1,14,0.00
2013-4-28,64,58,54,53,46,37,85,65,52,30.05,29.81,7,2,15,0.00
2013-4-29,72,61,47,55,51,44,91,71,49,29.93,29.82,7,1,14,0.00
2013-4-30,80,67,56,62,57,52,90,71,53,29.95,29.85,11,2,18,0.43
2013-5-1,87,75,62,61,57,54,76,57,36,30.15,29.96,11,1,12,0.00
2013-5-2,83,71,61,61,57,54,78,63,41,30.16,30.05,9,1,13,0.02
2013-5-3,82,69,55,58,52,41,88,59,37,30.08,29.95,7,2,14,0.00
2013-5-4,75,67,58,51,45,40,61,45,32,30.06,29.97,10,3,26,0.00
2013-5-5,76,65,55,49,42,36,60,46,26,30.06,29.97,7,2,16,0.00
2013-5-6,77,64,51,47,41,37,65,46,26,30.04,29.94,7,1,14,0.00
2013-5-7,79,66,50,53,49,44,82,56,38,30.05,29.95,7,1,13,0.00
2013-5-8,81,68,54,57,52,48,86,58,37,30.02,29.93,4,1,11,0.01
2013-5-9,81,66,52,55,48,43,84,57,29,29.96,29.86,8,1,17,0.00
2013-5-10,62,50,45,55,47,42,91,88,73,29.92,29.76,7,1,10,0.28
2013-5-11,54,46,39,47,41,34,89,82,63,29.94,29.76,13,2,21,0.15
2013-5-12,46,41,38,35,30,26,86,65,48,30.13,29.93,13,3,19,0.00
2013-5-13,55,44,29,35,27,23,90,56,30,30.20,30.07,8,1,13,0.00
2013-5-14,75,61,46,55,44,30,75,53,46,30.08,29.62,10,2,16,0.00
2013-5-15,78,70,58,60,52,45,86,55,37,29.80,29.54,12,3,16,0.00
2013-5-16,82,67,48,52,47,42,87,54,32,29.99,29.79,7,1,14,0.00
2013-5-17,70,61,52,49,45,40,66,55,41,30.10,30.00,10,2,16,0.00
2013-5-18,82,69,56,60,52,46,70,55,40,30.12,29.96,8,1,14,0.00
2013-5-19,88,75,59,64,57,46,70,54,44,29.98,29.79,7,1,12,0.00
2013-5-20,88,78,69,72,65,60,91,65,40,29.83,29.71,15,2,25,0.17
2013-5-21,81,73,64,66,64,61,93,72,54,29.75,29.66,14,-8,20,0.31
2013-5-22,70,66,59,66,62,56,92,88,79,29.69,29.60,14,2,19,0.28
2013-5-23,58,52,44,56,48,36,93,87,72,30.23,29.69,5,1,11,0.31
2013-5-24,62,49,35,44,38,32,89,67,46,30.40,30.23,6,1,12,0.00
2013-5-25,66,54,39,43,39,35,91,60,34,30.41,30.29,7,0,9,0.00
2013-5-26,69,58,43,43,40,37,85,55,31,30.35,30.20,5,1,10,0.00
2013-5-27,60,54,51,50,44,38,92,71,51,30.22,29.94,15,2,18,0.07
2013-5-28,76,63,52,68,60,50,95,90,71,29.95,29.75,10,2,15,0.11
2013-5-29,80,70,62,68,64,59,94,83,61,29.96,29.77,10,2,18,0.02
2013-5-30,87,78,68,71,67,62,87,70,53,29.96,29.84,10,2,16,0.00
2013-5-31,79,74,66,67,65,63,92,75,60,29.90,29.76,10,2,22,0.07
2013-6-1,79,72,64,66,63,61,90,75,55,29.76,29.65,13,2,20,0.22
2013-6-2,64,56,48,61,50,41,93,79,62,30.03,29.63,12,2,14,0.01
2013-6-3,67,54,40,46,42,37,92,65,45,30.11,30.02,9,1,12,0.00
2013-6-4,74,61,46,51,46,42,86,61,42,30.20,30.10,7,1,9,0.00
2013-6-5,71,62,58,51,45,40,77,55,36,30.15,29.99,11,2,13,0.00
2013-6-6,64,59,54,54,51,47,88,77,67,30.01,29.89,5,1,9,0.01
2013-6-7,74,62,51,52,49,46,87,64,42,29.95,29.84,8,1,13,0.00
2013-6-8,75,64,52,54,51,47,89,64,39,30.02,29.89,8,1,11,0.00
2013-6-9,81,70,59,63,58,51,82,67,53,30.04,29.87,9,2,13,0.00
2013-6-10,75,68,62,66,62,56,93,84,65,29.87,29.72,5,0,9,0.01
2013-6-11,81,70,58,67,62,55,93,77,61,29.91,29.80,9,2,14,0.00
2013-6-12,77,70,63,69,64,60,92,84,72,29.91,29.61,8,0,10,0.04
2013-6-13,78,68,59,64,60,56,94,75,53,29.96,29.61,6,1,13,1.00
2013-6-14,79,67,55,57,54,51,88,65,39,30.10,29.96,7,1,13,0.00
2013-6-15,74,66,55,63,58,52,91,77,66,30.06,29.85,9,1,14,0.00
2013-6-16,80,70,63,65,62,58,94,78,51,29.86,29.77,9,2,17,1.22
2013-6-17,85,72,59,63,59,56,93,66,38,29.91,29.82,9,2,15,0.00
2013-6-18,73,65,56,59,52,44,86,65,39,30.08,29.90,9,2,12,0.00
2013-6-19,77,64,47,51,46,41,84,55,36,30.17,30.07,5,1,10,0.00
2013-6-20,85,70,52,58,53,48,90,59,37,30.18,30.10,5,0,8,0.00
2013-6-21,84,76,65,66,62,56,80,63,51,30.14,29.94,7,1,15,0.00
2013-6-22,88,78,70,70,67,65,83,71,51,30.07,29.93,6,1,12,0.00
2013-6-23,90,81,70,71,68,65,85,66,48,30.00,29.91,10,3,16,0.00
2013-6-24,87,79,72,69,67,64,81,69,50,30.01,29.84,10,2,15,0.00
2013-6-25,81,72,67,72,67,63,94,84,73,29.95,29.80,9,1,15,0.64
2013-6-26,85,76,67,71,68,64,92,76,56,29.83,29.70,6,1,11,0.00
2013-6-27,86,77,69,72,69,66,92,77,55,29.73,29.62,8,1,17,0.00
2013-6-28,81,72,66,68,64,61,91,77,58,29.63,29.52,8,1,12,0.01
2013-6-29,73,68,62,64,61,59,93,81,70,29.74,29.55,9,1,10,0.01
2013-6-30,81,72,63,62,58,47,85,64,44,29.97,29.74,7,1,12,0.00
2013-7-1,78,68,57,55,50,45,69,53,40,30.08,29.97,10,2,23,0.00
2013-7-2,68,63,57,62,54,43,90,75,47,30.08,30.02,5,0,9,0.24
2013-7-3,82,69,61,67,61,52,88,76,57,30.07,30.00,7,1,10,0.01
2013-7-4,80,71,62,64,61,58,93,74,49,30.11,30.04,8,2,13,0.00
2013-7-5,86,75,64,65,63,60,92,68,43,30.09,30.00,6,0,9,0.00
2013-7-6,86,75,68,69,66,63,90,74,53,30.06,29.95,7,1,11,0.00
2013-7-7,86,77,71,70,68,66,89,74,55,29.99,29.92,8,2,13,0.00
2013-7-8,79,76,73,72,70,68,90,82,75,29.99,29.92,12,2,18,0.01
2013-7-9,86,76,68,75,70,66,92,81,59,29.97,29.83,8,1,12,0.00
2013-7-10,82,77,66,74,66,55,91,71,49,29.95,29.78,9,2,16,0.00
2013-7-11,82,70,57,61,56,53,92,65,39,30.05,29.96,9,0,11,0.00
2013-7-12,83,71,58,60,57,54,86,63,39,30.16,30.05,4,1,9,0.00
2013-7-13,87,76,62,63,60,57,89,61,40,30.17,30.11,8,1,13,0.00
2013-7-14,92,80,65,70,66,60,87,65,46,30.21,30.16,4,1,9,0.00
2013-7-15,93,82,72,76,72,68,90,73,54,30.25,30.18,5,0,10,0.00
2013-7-16,92,83,73,76,73,70,93,72,53,30.28,30.21,8,2,14,0.00
2013-7-17,94,85,77,77,73,70,87,69,52,30.26,30.12,9,2,14,0.00
2013-7-18,95,86,77,75,73,71,86,66,50,30.13,29.89,10,2,17,0.00
2013-7-19,94,85,80,74,73,69,82,67,50,29.90,29.67,21,5,28,0.04
2013-7-20,87,79,68,72,63,56,84,59,40,29.91,29.70,8,1,14,0.00
2013-7-21,84,71,60,69,58,50,89,64,50,29.99,29.88,6,1,13,0.51
2013-7-22,85,74,65,69,66,63,94,77,54,29.94,29.71,5,1,11,0.60
2013-7-23,80,73,59,70,63,48,89,72,50,29.92,29.64,8,2,15,0.00
2013-7-24,75,63,50,53,49,46,86,63,41,30.04,29.93,8,0,9,0.00
2013-7-25,78,67,54,58,54,50,90,65,43,30.10,30.03,6,1,11,0.00
2013-7-26,76,67,61,63,59,53,92,76,59,30.05,29.86,7,1,13,0.30
2013-7-27,71,63,56,63,57,48,94,80,64,29.86,29.79,10,1,16,0.00
2013-7-28,67,58,53,55,52,49,92,81,60,29.95,29.79,12,2,18,0.18
2013-7-29,70,62,57,57,55,53,92,78,60,30.19,29.94,6,1,10,0.04
2013-7-30,80,66,50,61,56,48,93,71,46,30.23,30.09,6,0,8,0.00
2013-7-31,70,67,63,66,62,59,92,86,71,30.10,29.90,3,0,7,0.15
2013-8-1,77,68,61,63,60,54,93,77,45,29.93,29.89,9,2,17,0.00
2013-8-2,74,66,58,66,60,54,90,81,75,29.92,29.82,11,1,15,0.01
2013-8-3,78,69,60,63,57,52,93,68,43,30.07,29.90,11,1,16,0.00
2013-8-4,76,66,56,57,52,48,88,65,45,30.18,30.06,7,1,12,0.00
2013-8-5,72,62,50,61,54,48,92,76,58,30.11,29.92,2,0,7,0.00
2013-8-6,78,70,65,68,64,61,90,82,72,29.93,29.83,7,1,10,0.00
2013-8-7,82,73,64,72,67,61,93,81,66,29.92,29.78,8,2,13,0.37
2013-8-8,78,68,58,61,56,52,87,66,41,30.03,29.92,5,0,9,0.00
2013-8-9,80,70,56,62,58,52,91,68,48,30.00,29.95,10,2,13,0.00
2013-8-10,80,70,60,61,57,53,87,64,41,30.13,30.00,5,0,9,0.00
2013-8-11,77,69,60,59,57,55,87,67,49,30.11,30.03,7,1,10,0.00
2013-8-12,76,68,65,68,63,57,94,85,72,30.04,29.84,5,0,7,0.57
2013-8-13,69,62,53,59,50,46,84,67,46,30.11,29.89,6,1,13,0.00
2013-8-14,73,59,46,54,48,43,91,69,45,30.20,30.11,7,1,13,0.00
2013-8-15,76,62,48,59,52,46,93,73,49,30.17,30.08,7,1,15,0.00
2013-8-16,80,67,53,60,55,50,93,68,38,30.19,30.12,5,0,8,0.00
2013-8-17,82,69,54,61,55,51,93,66,35,30.25,30.16,5,0,8,0.00
2013-8-18,82,70,55,60,57,52,93,67,44,30.22,30.09,4,0,8,0.00
2013-8-19,82,70,55,62,58,52,93,69,48,30.11,30.02,7,2,13,0.00
2013-8-20,86,74,62,67,63,58,91,71,50,30.11,30.04,9,1,18,0.00
2013-8-21,88,78,67,69,66,63,87,68,47,30.07,29.93,9,2,15,0.00
2013-8-22,79,71,65,69,66,62,93,86,67,30.07,29.94,9,1,25,0.07
2013-8-23,82,70,53,64,55,51,93,64,37,30.18,30.07,3,0,9,0.00
2013-8-24,84,71,56,61,57,53,91,65,40,30.28,30.17,4,1,10,0.00
2013-8-25,88,76,63,68,62,57,83,65,50,30.25,30.10,10,2,16,0.00
2013-8-26,84,77,70,72,68,63,80,72,65,30.12,29.95,10,2,15,0.00
2013-8-27,91,81,73,77,72,70,94,76,54,29.96,29.76,11,3,19,0.28
2013-8-28,85,77,72,74,71,68,94,84,62,30.00,29.76,2,0,8,0.25
2013-8-29,89,77,66,70,67,64,93,74,50,30.07,29.96,6,0,7,0.00
2013-8-30,89,78,69,75,70,66,91,78,56,29.97,29.71,13,2,18,0.04
2013-8-31,80,72,65,67,65,62,92,78,61,29.84,29.78,6,0,8,0.00
2013-9-1,85,73,65,71,67,62,92,81,60,29.83,29.69,7,1,11,0.00
2013-9-2,72,66,60,68,58,51,89,76,63,29.96,29.73,6,1,13,0.00
2013-9-3,76,65,55,57,54,50,84,68,51,30.05,29.95,8,1,13,0.00
2013-9-4,81,68,56,63,58,52,93,74,50,30.10,30.01,11,2,17,0.00
2013-9-5,73,63,53,60,49,45,86,63,37,30.27,30.10,3,0,9,0.00
2013-9-6,80,65,49,56,51,45,89,64,38,30.26,30.02,8,1,11,0.00
2013-9-7,80,72,66,68,63,55,84,72,62,30.02,29.88,10,1,13,0.00
2013-9-8,78,70,64,65,61,55,91,74,52,30.07,29.93,5,1,14,0.00
2013-9-9,86,71,60,73,65,55,94,80,64,30.02,29.81,6,1,9,0.62
2013-9-10,93,84,77,73,69,66,83,62,42,29.95,29.82,13,3,18,0.00
2013-9-11,86,78,69,71,67,64,86,69,51,30.01,29.92,9,1,14,0.00
2013-9-12,78,68,57,66,58,47,92,71,46,30.03,29.89,4,0,14,0.00
2013-9-13,65,56,48,47,43,40,83,64,40,30.15,30.03,7,0,12,0.00
2013-9-14,69,55,40,52,45,37,91,71,48,30.20,30.06,8,1,13,0.00
2013-9-15,59,56,52,56,50,43,91,81,65,30.15,30.04,4,0,8,0.04
2013-9-16,62,55,48,54,48,43,92,78,58,30.38,30.15,5,0,8,0.00
2013-9-17,69,54,39,51,44,36,91,72,47,30.42,30.19,7,0,10,0.00
2013-9-18,79,65,52,59,54,47,86,68,48,30.20,29.96,6,0,12,0.00
2013-9-19,76,68,62,68,63,55,93,83,69,29.99,29.81,8,1,11,0.23
2013-9-20,72,70,64,69,66,58,92,85,81,29.84,29.71,6,2,13,0.05
2013-9-21,65,60,54,58,51,46,88,74,53,29.91,29.70,7,1,14,0.00
2013-9-22,55,52,46,46,43,40,88,73,64,30.09,29.91,2,0,8,0.00
2013-9-23,65,51,39,48,42,36,91,74,52,30.19,30.10,6,0,10,0.00
2013-9-24,69,56,43,51,46,40,91,73,51,30.15,29.98,5,0,10,0.00
2013-9-25,72,58,46,52,49,43,92,72,48,30.02,29.95,4,0,10,0.00
2013-9-26,76,60,46,54,50,43,92,72,45,30.12,29.99,3,0,8,0.00
2013-9-27,80,64,48,56,52,46,92,69,42,30.22,30.11,6,0,9,0.00
2013-9-28,80,66,53,59,54,50,92,68,42,30.15,29.92,7,1,15,0.00
2013-9-29,72,64,53,61,54,49,91,72,53,30.00,29.89,8,1,13,0.21
2013-9-30,72,59,50,56,51,47,90,77,48,30.01,29.90,5,1,12,0.00
2013-10-1,72,63,53,64,59,50,92,85,74,29.95,29.89,9,2,16,0.00
2013-10-2,79,65,54,62,51,42,93,65,30,30.10,29.91,3,0,10,0.00
2013-10-3,79,66,53,68,58,45,89,76,66,30.03,29.88,11,1,17,0.01
2013-10-4,78,70,65,67,65,63,92,84,69,29.98,29.89,4,1,9,0.02
2013-10-5,77,69,64,71,66,63,95,90,79,30.00,29.77,6,1,9,0.25
2013-10-6,70,60,51,67,56,47,92,87,72,29.78,29.67,10,1,14,0.03
2013-10-7,62,53,47,52,47,44,93,81,60,30.10,29.68,9,2,17,0.01
2013-10-8,72,57,43,52,47,41,93,73,50,30.24,30.10,7,0,11,0.01
2013-10-9,71,58,46,50,47,43,91,70,44,30.30,30.18,5,0,9,0.00
2013-10-10,73,57,44,54,47,41,92,71,44,30.21,30.10,3,0,9,0.00
2013-10-11,71,57,45,50,46,40,89,70,41,30.15,30.03,5,0,9,0.00
2013-10-12,78,63,50,61,53,45,92,72,45,30.09,29.97,8,1,13,0.01
2013-10-13,63,54,45,58,47,43,93,77,53,30.39,30.10,7,1,14,0.00
2013-10-14,62,50,38,44,39,35,92,70,42,30.45,30.25,6,0,10,0.00
2013-10-15,65,54,45,59,50,41,93,85,75,30.25,29.78,6,1,11,0.03
2013-10-16,62,53,51,60,49,46,93,86,79,29.88,29.78,9,2,17,0.00
2013-10-17,51,49,42,50,47,39,93,92,90,29.89,29.73,4,0,12,0.00
2013-10-18,60,48,41,49,43,39,94,83,61,29.91,29.84,10,2,19,0.00
2013-10-19,53,46,41,42,40,34,90,80,50,29.89,29.75,7,1,14,0.00
2013-10-20,56,48,37,49,41,35,93,79,54,29.90,29.74,9,1,18,0.00
2013-10-21,54,48,40,49,40,27,91,77,59,29.89,29.76,10,2,17,0.00
2013-10-22,48,42,36,34,31,26,86,67,58,29.92,29.88,11,2,15,0.00
2013-10-23,46,38,32,35,32,28,91,79,51,29.98,29.87,7,1,17,0.00
2013-10-24,44,38,34,36,32,30,90,82,69,30.23,29.96,10,1,11,0.00
2013-10-25,46,40,32,36,32,28,91,75,52,30.36,30.02,11,2,18,0.00
2013-10-26,54,47,41,42,36,32,80,65,54,30.03,29.76,24,4,28,0.00
2013-10-27,51,43,37,35,33,30,85,69,52,30.05,29.97,10,2,19,0.00
2013-10-28,48,40,34,39,34,31,91,78,65,30.43,30.04,2,0,14,0.00
2013-10-29,50,42,38,37,33,29,81,70,63,30.45,30.23,7,1,10,0.00
2013-10-30,64,50,37,54,43,33,91,78,57,30.23,29.87,7,1,10,0.00
2013-10-31,62,60,55,60,58,53,94,94,91,29.84,29.09,10,2,20,0.00
2013-11-1,55,47,45,53,44,40,93,88,80,29.67,29.16,14,4,27,0.00
2013-11-2,50,45,42,44,40,36,93,84,63,30.12,29.66,3,0,6,0.00
2013-11-3,49,41,33,39,33,30,90,75,56,30.40,30.11,5,1,12,0.00
2013-11-4,53,45,37,40,33,31,83,66,47,30.41,30.22,8,2,14,0.00
2013-11-5,60,53,50,48,45,40,82,73,63,30.31,30.05,6,1,11,0.00
2013-11-6,56,50,40,54,47,37,93,89,68,30.05,29.72,13,2,20,0.00
2013-11-7,43,38,33,37,30,27,87,72,59,30.18,30.04,9,2,18,0.00
2013-11-8,45,39,32,32,28,25,86,68,52,30.31,30.10,11,1,12,0.00
2013-11-9,51,47,40,43,37,31,74,68,60,30.09,29.81,18,4,28,0.00
2013-11-10,47,42,33,33,31,28,84,65,53,30.28,29.94,14,2,25,0.00
2013-11-11,45,36,26,38,30,20,89,80,74,30.42,30.05,5,1,15,0.00
2013-11-12,35,28,21,24,19,16,86,71,49,30.63,30.43,14,1,19,0.00
2013-11-13,41,30,20,25,21,16,88,69,47,30.57,30.16,15,3,25,0.00
2013-11-14,47,39,31,31,27,23,74,62,47,30.17,29.96,14,2,20,0.00
2013-11-15,49,43,38,34,31,28,74,63,55,30.02,29.96,7,1,12,0.00
2013-11-16,56,48,37,53,42,30,92,81,70,30.03,29.66,10,1,15,0.01
2013-11-17,64,56,42,60,53,37,93,90,73,29.65,29.15,28,4,43,0.02
2013-11-18,45,38,34,38,29,23,76,69,63,30.19,29.54,19,6,24,0.00
2013-11-19,42,35,28,24,23,21,78,63,48,30.39,30.20,7,1,13,0.00
2013-11-20,44,36,29,31,25,22,76,65,45,30.41,30.21,7,1,15,0.00
2013-11-21,51,45,38,43,39,32,92,81,71,30.25,30.17,3,0,12,0.00
2013-11-22,46,37,26,43,32,21,91,81,67,30.43,30.16,6,1,11,0.00
2013-11-23,30,24,17,23,15,7,85,69,51,30.62,30.33,11,2,16,0.00
2013-11-24,24,20,16,17,11,7,79,68,54,30.67,30.40,7,1,13,0.00
2013-11-25,33,26,20,30,18,7,90,74,55,30.40,30.08,16,2,19,0.00
2013-11-26,33,30,25,29,25,17,85,80,68,30.08,29.98,6,1,12,0.00
2013-11-27,30,24,20,18,14,11,81,68,51,30.25,30.06,6,1,14,0.00
2013-11-28,27,24,21,22,18,14,87,77,64,30.46,30.25,8,0,12,0.01
2013-11-29,32,25,17,24,20,14,90,81,70,30.69,30.47,6,0,8,0.00
2013-11-30,45,36,27,31,26,20,79,68,58,30.52,30.06,7,1,14,0.00
2013-12-1,43,38,33,33,30,27,85,74,61,30.10,30.02,3,0,10,0.00
2013-12-2,40,35,30,30,27,23,87,74,58,30.01,29.88,5,1,8,0.00
2013-12-3,34,33,31,33,29,23,93,86,68,29.90,29.80,10,2,15,0.35
2013-12-4,56,44,35,54,42,33,99,93,82,29.85,29.55,8,1,22,0.01
2013-12-5,55,36,27,51,28,18,84,73,65,30.19,29.56,15,6,29,0.00
2013-12-6,27,23,20,18,14,12,79,71,67,30.46,30.19,8,1,14,0.00
2013-12-7,20,18,12,15,11,7,82,75,65,30.66,30.46,5,1,12,0.00
2013-12-8,21,17,12,18,12,8,88,80,65,30.63,30.01,7,1,13,0.09
2013-12-9,28,23,16,26,18,8,90,80,66,30.15,29.89,18,5,26,0.01
2013-12-10,21,17,11,17,11,1,88,79,62,30.23,29.95,12,4,20,0.00
2013-12-11,20,16,11,16,11,6,88,81,68,30.50,30.23,9,2,15,0.00
2013-12-12,24,16,11,21,12,6,87,85,81,30.48,30.20,10,2,14,0.09
2013-12-13,28,25,20,23,19,15,92,79,71,30.28,30.17,6,1,16,0.00
2013-12-14,20,19,16,17,15,11,89,85,78,30.27,29.93,13,2,18,0.13
2013-12-15,22,18,15,20,15,10,90,87,81,30.09,29.86,11,2,17,0.03
2013-12-16,21,14,5,14,9,1,88,80,68,30.21,30.05,5,0,9,0.01
2013-12-17,30,25,17,27,22,13,91,87,81,30.04,29.88,8,2,18,0.09
2013-12-18,30,27,25,25,20,14,90,73,61,30.15,29.85,10,2,16,0.00
2013-12-19,39,34,26,34,29,17,90,82,67,29.98,29.83,8,1,13,0.00
2013-12-20,32,31,29,31,29,27,92,91,90,29.88,29.77,5,1,10,0.19
2013-12-21,32,31,30,30,29,27,93,92,91,29.88,29.72,0,0,0,0.16
2013-12-22,33,30,27,30,28,24,91,90,88,30.03,29.60,0,0,0,0.19
2013-12-23,27,23,17,24,20,14,90,88,79,30.34,30.03,0,0,0,0.02
2013-12-24,22,17,10,17,13,7,88,85,77,30.53,30.34,0,0,0,0.02
2013-12-25,24,20,11,22,17,7,90,87,83,30.49,30.08,0,0,0,0.06
2013-12-26,26,24,21,24,21,18,91,87,80,30.27,30.05,0,0,0,0.05
2013-12-27,40,32,26,33,28,24,91,86,72,30.32,30.04,10,1,18,0.00
2013-12-28,46,40,32,35,33,28,90,76,62,30.09,29.84,14,2,22,0.00
2013-12-29,40,31,18,33,24,9,86,76,67,30.09,29.73,8,1,15,0.00
2013-12-30,18,16,14,12,9,4,82,73,63,30.30,30.10,6,1,12,0.00
2013-12-31,17,15,12,13,11,8,86,84,80,30.38,30.12,11,2,14,0.06
2014-1-1,13,11,10,9,5,2,84,77,66,30.44,30.31,9,1,11,0.07
2014-1-2,14,10,3,8,3,-4,82,73,61,30.41,30.24,10,1,14,0.00